Flight Track Log - Related Links

Times and Time Zones

All times are in EDT time to prevent confusion due to time zone crossing. See the UAL33 flight status page for this flight to view local times or setup timezone preferences in your user account.

Time Position Orientation Groundspeed Altitude Reporting Facility
EDT Latitude Longitude Course Direction KTS MPH feet Rate Location/Type
Wed 05:28:25 PM 29.9466 -95.3387 182° South 182 209 1,500  Level FlightAware ADS-B
Wed 05:28:30 PM 29.9426 -95.3395 190° South 191 220 1,600 1,500 Climbing FlightAware ADS-B
Wed 05:28:33 PM 29.9397 -95.3407 200° South 198 228 1,700 1,714 Climbing FlightAware ADS-B
Wed 05:28:37 PM 29.9366 -95.3424 205° Southwest 203 234 1,800 1,333 Climbing FlightAware ADS-B
Wed 05:28:42 PM 29.9328 -95.3458 218° Southwest 211 243 1,900 1,333 Climbing FlightAware ADS-B
Wed 05:28:46 PM 29.9301 -95.3490 226° Southwest 218 251 2,000 1,714 Climbing FlightAware ADS-B
Wed 05:28:49 PM 29.9281 -95.3521 233° Southwest 225 259 2,100 1,500 Climbing FlightAware ADS-B
Wed 05:28:54 PM 29.9258 -95.3571 242° Southwest 233 268 2,200 1,333 Climbing FlightAware ADS-B
Wed 05:28:58 PM 29.9244 -95.3620 252° West 238 274 2,300 2,571 Climbing FlightAware ADS-B
Wed 05:29:01 PM 29.9237 -95.3668 260° West 245 282 2,500 3,000 Climbing FlightAware ADS-B
Wed 05:29:06 PM 29.9233 -95.3737 266° West 252 290 2,700 2,182 Climbing FlightAware ADS-B
Wed 05:29:12 PM 29.9239 -95.3816 275° West 258 297 2,900 2,182 Climbing FlightAware ADS-B
Wed 05:29:17 PM 29.9251 -95.3873 284° West 263 303 3,100 2,250 Climbing FlightAware ADS-B
Wed 05:29:20 PM 29.9264 -95.3916 289° West 265 305 3,200 2,000 Climbing FlightAware ADS-B
Wed 05:29:23 PM 29.9281 -95.3957 296° West 268 308 3,300 2,000 Climbing FlightAware ADS-B
Wed 05:29:26 PM 29.9301 -95.3994 302° West 269 310 3,400 2,250 Climbing FlightAware ADS-B
Wed 05:29:31 PM 29.9341 -95.4052 309° West 270 311 3,600 1,800 Climbing FlightAware ADS-B
Wed 05:29:36 PM 29.9387 -95.4101 317° Northwest 271 312 3,700 1,286 Climbing FlightAware ADS-B
Wed 05:29:45 PM 29.9483 -95.4165 335° Northwest 273 314 3,900 1,385 Climbing FlightAware ADS-B
Wed 05:29:49 PM 29.9531 -95.4185 340° North 274 315 4,000 600 Climbing FlightAware ADS-B
Wed 05:29:55 PM 29.9609 -95.4201 350° North 277 319 4,000 545 Level FlightAware ADS-B
Wed 05:30:00 PM 29.9675 -95.4205 357° North 277 319 4,100 545 Climbing FlightAware ADS-B
Wed 05:30:06 PM 29.9750 -95.4202 North 277 319 4,100 759 Level FlightAware ADS-B
Wed 05:31:19 PM 30.0672 -95.4114 North 278 320 5,100 698 Climbing FlightAware ADS-B
Wed 05:31:32 PM 30.0848 -95.4098 North 277 319 5,100  Level FlightAware ADS-B
Wed 05:31:54 PM 30.1130 -95.4071 North 278 320 5,100  Level FlightAware ADS-B
Wed 05:32:24 PM 30.1519 -95.4038 North 279 321 5,100 537 Level FlightAware ADS-B
Wed 05:33:01 PM 30.1997 -95.3998 North 283 326 5,700 1,714 Climbing FlightAware ADS-B
Wed 05:33:13 PM 30.2160 -95.4020 348° North 280 322 6,500 3,600 Climbing FlightAware ADS-B
Wed 05:33:31 PM 30.2363 -95.4124 329° Northwest 282 325 7,500 3,250 Climbing FlightAware ADS-B
Wed 05:34:01 PM 30.2697 -95.4385 326° Northwest 288 331 9,100 3,100 Climbing FlightAware ADS-B
Wed 05:34:31 PM 30.3030 -95.4650 326° Northwest 299 344 10,600 2,774 Climbing FlightAware ADS-B
Wed 05:35:34 PM 30.3805 -95.5273 325° Northwest 337 388 13,400 2,298 Climbing FlightAware ADS-B
Wed 05:36:05 PM 30.4217 -95.5606 325° Northwest 371 427 14,200 1,967 Climbing FlightAware ADS-B
Wed 05:36:35 PM 30.4659 -95.5965 325° Northwest 385 443 15,400 2,700 Climbing FlightAware ADS-B
Wed 05:37:05 PM 30.5104 -95.6323 325° Northwest 395 455 16,900 2,857 Climbing FlightAware ADS-B
Wed 05:37:17 PM 30.5284 -95.6454 328° Northwest 399 459 17,400 2,625 Climbing FlightAware ADS-B
Wed 05:37:37 PM 30.5623 -95.6665 332° Northwest 407 468 18,300 2,625 Climbing FlightAware ADS-B
Wed 05:39:09 PM 30.7233 -95.7526 335° Northwest 429 494 22,300 2,471 Climbing FlightAware ADS-B
Wed 05:40:10 PM 30.8353 -95.8125 335° Northwest 446 513 24,600 2,146 Climbing FlightAware ADS-B
Wed 05:41:12 PM 30.9537 -95.8761 335° Northwest 461 531 26,700 2,022 Climbing FlightAware ADS-B
Wed 05:41:42 PM 31.0123 -95.9077 335° Northwest 468 539 27,700 2,000 Climbing FlightAware ADS-B
Wed 05:42:12 PM 31.0717 -95.9397 335° Northwest 473 544 28,700 1,867 Climbing FlightAware ADS-B
Wed 05:42:27 PM 31.1029 -95.9553 337° Northwest 479 551 29,100 1,778 Climbing FlightAware ADS-B
Wed 05:42:39 PM 31.1285 -95.9657 341° North 482 555 29,500 1,909 Climbing FlightAware ADS-B
Wed 05:42:49 PM 31.1505 -95.9732 344° North 485 558 29,800 1,703 Climbing FlightAware ADS-B
Wed 05:43:53 PM 31.2934 -96.0073 349° North 496 571 31,600 2,041 Climbing FlightAware ADS-B
Wed 05:44:26 PM 31.3671 -96.0244 349° North 487 560 33,100 2,154 Climbing FlightAware ADS-B
Wed 05:45:11 PM 31.4661 -96.0428 354° North 490 564 34,400 1,615 Climbing FlightAware ADS-B
Wed 05:46:36 PM 31.6604 -96.0283 North 498 573 36,600 1,400 Climbing FlightAware ADS-B
Wed 05:47:11 PM 31.7411 -96.0200 North 501 577 37,200 1,108 Climbing FlightAware ADS-B
Wed 05:47:41 PM 31.8108 -96.0129 North 503 579 37,800 1,059 Climbing FlightAware ADS-B
Wed 05:48:53 PM 31.9769 -95.9956 North 495 570 39,000 692 Climbing FlightAware ADS-B
Wed 05:49:25 PM 32.0488 -95.9882 North 490 564 39,000  Level FlightAware ADS-B
Wed 05:49:57 PM 32.1160 -95.9810 North 489 563 39,000  Level FlightAware ADS-B
Wed 05:50:37 PM 32.2050 -95.9720 North 489 563 39,000  Level FlightAware ADS-B
Wed 05:51:22 PM 32.3100 -95.9650 North 487 560 39,000  Level FlightAware ADS-B
Wed 05:52:02 PM 32.4010 -95.9600 North 486 559 39,000  Level FlightAware ADS-B
Wed 05:52:47 PM 32.4980 -95.9530 North 485 558 39,000  Level FlightAware ADS-B
Wed 05:54:52 PM 32.7800 -95.9330 North 483 556 39,000  Level FlightAware ADS-B
Wed 05:55:32 PM 32.8680 -95.9260 North 480 552 39,000  Level FlightAware ADS-B
Wed 05:56:17 PM 32.9680 -95.9190 North 481 554 39,000  Level FlightAware ADS-B
Wed 05:56:57 PM 33.0580 -95.9130 North 481 554 39,000  Level FlightAware ADS-B
Wed 05:57:37 PM 33.1470 -95.9060 North 482 555 39,000  Level FlightAware ADS-B
Wed 05:58:22 PM 33.2490 -95.8990 North 484 557 39,000  Level FlightAware ADS-B
Wed 05:59:02 PM 33.3400 -95.8930 North 486 559 39,000  Level FlightAware ADS-B
Wed 05:59:42 PM 33.4290 -95.8860 North 487 560 39,000  Level FlightAware ADS-B
Wed 06:00:27 PM 33.5310 -95.8790 North 488 562 39,000  Level FlightAware ADS-B
Wed 06:01:12 PM 33.6310 -95.8720 North 489 563 39,000  Level FlightAware ADS-B
Wed 06:01:52 PM 33.7210 -95.8650 North 488 562 39,000  Level FlightAware ADS-B
Wed 06:02:37 PM 33.8230 -95.8580 North 490 564 39,000  Level FlightAware ADS-B
Wed 06:03:17 PM 33.9110 -95.8510 North 490 564 39,000  Level FlightAware ADS-B
Wed 06:03:57 PM 34.0040 -95.8450 North 490 564 39,000  Level FlightAware ADS-B
Wed 06:04:42 PM 34.1090 -95.8370 North 491 565 39,000  Level FlightAware ADS-B
Wed 06:05:22 PM 34.1970 -95.8310 North 489 563 39,000  Level FlightAware ADS-B
Wed 06:06:07 PM 34.2920 -95.8240 North 488 562 39,000  Level FlightAware ADS-B
Wed 06:06:47 PM 34.3920 -95.8160 North 490 564 39,000  Level FlightAware ADS-B
Wed 06:07:27 PM 34.4790 -95.8100 North 488 562 39,000  Level FlightAware ADS-B
Wed 06:08:12 PM 34.5780 -95.8030 North 489 563 39,000  Level FlightAware ADS-B
Wed 06:08:52 PM 34.6690 -95.7960 North 490 564 39,000  Level FlightAware ADS-B
Wed 06:09:32 PM 34.7670 -95.7890 North 491 565 39,000  Level FlightAware ADS-B
Wed 06:10:32 PM 34.8890 -95.7640 10° North 500 575 39,000  Level FlightAware ADS-B
Wed 06:10:47 PM 34.9200 -95.7010 59° Northeast 534 615 39,000  Level FlightAware ADS-B
Wed 06:11:17 PM 34.9740 -95.6380 44° Northeast 536 617 39,000  Level FlightAware ADS-B
Wed 06:12:02 PM 35.0490 -95.5500 44° Northeast 536 617 39,000  Level FlightAware ADS-B
Wed 06:12:52 PM 35.1250 -95.4600 44° Northeast 536 617 39,000  Level FlightAware ADS-B
Wed 06:13:32 PM 35.1860 -95.3890 44° Northeast 536 617 39,000  Level FlightAware ADS-B
Wed 06:14:27 PM 35.3080 -95.2450 44° Northeast 533 613 39,000  Level FlightAware ADS-B
Wed 06:15:07 PM 35.3690 -95.1740 43° Northeast 533 613 39,000  Level FlightAware ADS-B
Wed 06:15:52 PM 35.4610 -95.0660 44° Northeast 533 613 39,000  Level FlightAware ADS-B
Wed 06:16:32 PM 35.5210 -94.9950 44° Northeast 533 613 39,000  Level FlightAware ADS-B
Wed 06:17:12 PM 35.5810 -94.9230 44° Northeast 533 613 39,000  Level FlightAware ADS-B
Wed 06:17:52 PM 35.6420 -94.8510 44° Northeast 533 613 39,000  Level FlightAware ADS-B
Wed 06:18:42 PM 35.7170 -94.7620 44° Northeast 533 613 39,000  Level FlightAware ADS-B
Wed 06:19:22 PM 35.7770 -94.6900 44° Northeast 533 613 39,000  Level FlightAware ADS-B
Wed 06:20:02 PM 35.8380 -94.6180 44° Northeast 533 613 39,000  Level FlightAware ADS-B
Wed 06:20:42 PM 35.8980 -94.5460 44° Northeast 533 613 39,000  Level FlightAware ADS-B
Wed 06:21:22 PM 35.9580 -94.4740 44° Northeast 533 613 39,000  Level FlightAware ADS-B
Wed 06:22:12 PM 36.0340 -94.3840 44° Northeast 533 613 39,000  Level FlightAware ADS-B
Wed 06:22:52 PM 36.0940 -94.3120 44° Northeast 533 613 39,000  Level FlightAware ADS-B
Wed 06:23:32 PM 36.1540 -94.2400 44° Northeast 533 613 39,000  Level FlightAware ADS-B
Wed 06:24:12 PM 36.2140 -94.1680 44° Northeast 533 613 39,000  Level FlightAware ADS-B
Wed 06:24:52 PM 36.2750 -94.0960 44° Northeast 533 613 39,000  Level FlightAware ADS-B
Wed 06:25:42 PM 36.6030 -94.0020 13° North 524 603 39,000  Level FlightAware ADS-B
Wed 06:26:22 PM 36.6700 -93.9430 35° Northeast 524 603 39,000  Level FlightAware ADS-B
Wed 06:27:07 PM 36.7660 -93.8580 35° Northeast 525 604 39,000  Level FlightAware ADS-B
Wed 06:27:47 PM 36.8460 -93.7880 35° Northeast 528 608 39,000  Level FlightAware ADS-B
Wed 06:28:42 PM 36.9530 -93.6940 35° Northeast 529 609 39,000  Level FlightAware ADS-B
Wed 06:29:22 PM 37.0210 -93.6340 35° Northeast 529 609 39,000  Level FlightAware ADS-B
Wed 06:30:17 PM 37.1510 -93.5170 36° Northeast 530 610 39,000  Level FlightAware ADS-B
Wed 06:31:02 PM 37.2300 -93.4480 35° Northeast 530 610 39,000  Level FlightAware ADS-B
Wed 06:31:42 PM 37.2980 -93.3880 35° Northeast 530 610 39,000  Level FlightAware ADS-B
Wed 06:32:22 PM 37.3660 -93.3280 35° Northeast 530 610 39,000  Level FlightAware ADS-B
Wed 06:33:02 PM 37.4350 -93.2680 35° Northeast 530 610 39,000  Level FlightAware ADS-B
Wed 06:33:52 PM 37.5200 -93.1930 35° Northeast 530 610 39,000  Level FlightAware ADS-B
Wed 06:34:32 PM 37.5880 -93.1320 35° Northeast 530 610 39,000  Level FlightAware ADS-B
Wed 06:35:12 PM 37.6570 -93.0720 35° Northeast 530 610 39,000  Level FlightAware ADS-B
Wed 06:35:52 PM 37.7250 -93.0110 35° Northeast 530 610 39,000  Level FlightAware ADS-B
Wed 06:36:32 PM 37.7930 -92.9510 35° Northeast 530 610 39,000  Level FlightAware ADS-B
Wed 06:37:22 PM 37.8790 -92.8750 35° Northeast 530 610 39,000  Level FlightAware ADS-B
Wed 06:38:02 PM 37.9470 -92.8150 35° Northeast 530 610 39,000  Level FlightAware ADS-B
Wed 06:38:42 PM 38.0150 -92.7540 35° Northeast 530 610 39,000  Level FlightAware ADS-B
Wed 06:39:17 PM 38.2030 -92.5440 41° Northeast 501 577 39,000  Level FlightAware ADS-B
Wed 06:40:02 PM 38.2770 -92.4760 36° Northeast 501 577 39,000  Level FlightAware ADS-B
Wed 06:40:52 PM 38.3560 -92.4020 36° Northeast 501 577 39,000  Level FlightAware ADS-B
Wed 06:41:32 PM 38.4200 -92.3430 36° Northeast 501 577 39,000  Level FlightAware ADS-B
Wed 06:42:12 PM 38.4840 -92.2840 36° Northeast 501 577 39,000  Level FlightAware ADS-B
Wed 06:42:52 PM 38.5480 -92.2240 36° Northeast 501 577 39,000  Level FlightAware ADS-B
Wed 06:43:32 PM 38.6110 -92.1650 36° Northeast 501 577 39,000  Level FlightAware ADS-B
Wed 06:44:22 PM 38.6910 -92.0910 36° Northeast 501 577 39,000  Level FlightAware ADS-B
Wed 06:45:02 PM 38.7550 -92.0320 36° Northeast 501 577 39,000  Level FlightAware ADS-B
Wed 06:45:42 PM 38.9090 -91.8670 40° Northeast 498 573 39,000  Level FlightAware ADS-B
Wed 06:46:27 PM 38.9910 -91.7880 37° Northeast 500 575 39,000  Level FlightAware ADS-B
Wed 06:47:07 PM 39.0690 -91.7120 37° Northeast 503 579 39,000  Level FlightAware ADS-B
Wed 06:47:52 PM 39.1570 -91.6260 37° Northeast 505 581 39,000  Level FlightAware ADS-B
Wed 06:48:42 PM 39.2330 -91.5340 43° Northeast 507 583 39,000  Level FlightAware ADS-B
Wed 06:49:27 PM 39.2600 -91.3820 77° East 510 587 39,000 -267 Level FlightAware ADS-B
Wed 06:50:12 PM 39.2630 -91.2500 88° East 507 583 38,600 -706 Descending FlightAware ADS-B
Wed 06:50:52 PM 39.2640 -91.1290 89° East 501 577 38,000 -1,200 Descending FlightAware ADS-B
Wed 06:51:37 PM 39.2640 -91.0020 90° East 499 574 36,900 -1,520 Descending FlightAware ADS-B
Wed 06:52:07 PM 39.2650 -90.9080 89° East 494 568 36,100 -1,137 Descending FlightAware ADS-B
Wed 06:53:12 PM 39.2670 -90.7240 89° East 486 559 35,100 -825 Descending FlightAware ADS-B
Wed 06:53:27 PM 39.2850 -90.6760 64° Northeast 485 558 35,000 -100 Descending FlightAware ADS-B
Wed 06:54:12 PM 39.3440 -90.5760 53° Northeast 477 549 35,000  Level FlightAware ADS-B
Wed 06:54:52 PM 39.4230 -90.5250 27° Northeast 465 535 35,000  Level FlightAware ADS-B
Wed 06:55:32 PM 39.5050 -90.5200 North 450 518 35,000  Level FlightAware ADS-B
Wed 06:56:17 PM 39.5930 -90.5640 339° North 438 504 35,000  Level FlightAware ADS-B
Wed 06:57:07 PM 39.6730 -90.6150 334° Northwest 436 502 35,000  Level FlightAware ADS-B
Wed 06:57:52 PM 39.7600 -90.6680 335° Northwest 432 497 35,000 -267 Level FlightAware ADS-B
Wed 06:58:37 PM 39.8410 -90.7180 335° Northwest 428 493 34,600 -825 Descending FlightAware ADS-B
Wed 06:59:12 PM 39.9020 -90.7560 334° Northwest 421 484 33,900 -1,011 Descending FlightAware ADS-B
Wed 07:00:12 PM 40.0220 -90.7640 357° North 436 502 33,000 -514 Descending FlightAware ADS-B
Wed 07:00:57 PM 40.0990 -90.7010 32° Northeast 452 520 33,000  Level FlightAware ADS-B
Wed 07:01:37 PM 40.1420 -90.6020 60° Northeast 465 535 33,000  Level FlightAware ADS-B
Wed 07:02:22 PM 40.1620 -90.4780 78° East 464 534 33,000  Level FlightAware ADS-B
Wed 07:03:02 PM 40.1900 -90.3820 69° East 447 514 33,000  Level FlightAware ADS-B
Wed 07:03:42 PM 40.2480 -90.3050 45° Northeast 445 512 33,000 -141 Level FlightAware ADS-B
Wed 07:04:27 PM 40.3290 -90.2410 31° Northeast 455 524 32,800 -494 Descending FlightAware ADS-B
Wed 07:05:07 PM 40.4030 -90.1840 30° Northeast 451 519 32,300 -706 Descending FlightAware ADS-B
Wed 07:05:52 PM 40.4810 -90.1230 31° Northeast 447 514 31,800 -675 Descending FlightAware ADS-B
Wed 07:06:27 PM 40.5450 -90.0740 30° Northeast 444 511 31,400 -720 Descending FlightAware ADS-B
Wed 07:07:07 PM 40.6150 -90.0190 31° Northeast 442 509 30,900 -733 Descending FlightAware ADS-B
Wed 07:07:57 PM 40.6990 -89.9530 31° Northeast 439 505 30,300 -867 Descending FlightAware ADS-B
Wed 07:08:37 PM 40.7740 -89.8940 31° Northeast 436 502 29,600 -988 Descending FlightAware ADS-B
Wed 07:09:22 PM 40.8460 -89.8380 30° Northeast 419 482 28,900 -1,553 Descending FlightAware ADS-B
Wed 07:10:02 PM 40.9250 -89.8120 14° North 402 463 27,400 -1,725 Descending FlightAware ADS-B
Wed 07:10:42 PM 40.9950 -89.7790 20° North 407 468 26,600 -1,200 Descending FlightAware ADS-B
Wed 07:11:27 PM 41.0550 -89.7110 41° Northeast 403 464 25,700 -1,350 Descending FlightAware ADS-B
Wed 07:12:02 PM 41.1060 -89.6500 42° Northeast 397 457 24,800 -1,418 Descending FlightAware ADS-B
Wed 07:12:22 PM 41.1270 -89.6100 55° Northeast 391 450 24,400 -800 Descending FlightAware ADS-B
Wed 07:13:02 PM 41.1400 -89.5220 79° East 379 436 24,000 -282 Descending FlightAware ADS-B
Wed 07:13:47 PM 41.1460 -89.4180 86° East 380 437 24,000 -424 Level FlightAware ADS-B
Wed 07:14:27 PM 41.1520 -89.3240 85° East 379 436 23,400 -1,275 Descending FlightAware ADS-B
Wed 07:15:07 PM 41.1710 -89.2320 75° East 383 441 22,300 -2,047 Descending FlightAware ADS-B
Wed 07:15:52 PM 41.2210 -89.1470 52° Northeast 398 458 20,500 -2,400 Descending FlightAware ADS-B
Wed 07:16:32 PM 41.2690 -89.0740 49° Northeast 398 458 18,900 -2,250 Descending FlightAware ADS-B
Wed 07:17:12 PM 41.3170 -89.0040 48° Northeast 376 433 17,500 -2,118 Descending FlightAware ADS-B
Wed 07:17:57 PM 41.3690 -88.9250 49° Northeast 372 428 15,900 -2,118 Descending FlightAware ADS-B
Wed 07:18:37 PM 41.4110 -88.8620 48° Northeast 361 415 14,500 -2,118 Descending FlightAware ADS-B
Wed 07:19:22 PM 41.4600 -88.7870 49° Northeast 352 405 12,900 -2,047 Descending FlightAware ADS-B
Wed 07:20:02 PM 41.5040 -88.7180 50° Northeast 360 414 11,600 -1,129 Descending FlightAware ADS-B
Wed 07:20:47 PM 41.5420 -88.6310 60° Northeast 364 419 11,300 -212 Descending FlightAware ADS-B
Wed 07:21:27 PM 41.5730 -88.5530 62° Northeast 375 432 11,300 -300 Level FlightAware ADS-B
Wed 07:22:07 PM 41.6070 -88.4740 60° Northeast 369 425 10,900 -353 Descending FlightAware ADS-B
Wed 07:22:52 PM 41.6540 -88.3890 53° Northeast 373 429 10,800 -353 Descending FlightAware ADS-B
Wed 07:23:32 PM 41.6970 -88.3160 52° Northeast 372 428 10,400 -424 Descending FlightAware ADS-B
Wed 07:24:17 PM 41.7440 -88.2360 52° Northeast 373 429 10,200 -141 Descending FlightAware ADS-B
Wed 07:24:57 PM 41.7880 -88.1600 52° Northeast 349 402 10,200  Level FlightAware ADS-B
Wed 07:25:37 PM 41.8230 -88.0990 52° Northeast 318 366 10,200 -343 Level FlightAware ADS-B
Wed 07:26:07 PM 41.8510 -88.0490 53° Northeast 311 358 9,800 -900 Descending FlightAware ADS-B
Wed 07:26:37 PM 41.8730 -88.0050 56° Northeast 310 357 9,300 -1,091 Descending FlightAware ADS-B
Wed 07:27:02 PM 41.8830 -87.9570 74° East 305 351 8,800 -873 Descending FlightAware ADS-B
Wed 07:27:32 PM 41.8840 -87.8980 89° East 288 331 8,500 -545 Descending FlightAware ADS-B
Wed 07:27:57 PM 41.8840 -87.8600 90° East 276 318 8,300 -764 Descending FlightAware ADS-B
Wed 07:28:27 PM 41.8840 -87.8080 90° East 253 291 7,800 -933 Descending FlightAware ADS-B
Wed 07:28:42 PM 41.8840 -87.7860 90° East 240 276 7,600 -857 Descending FlightAware ADS-B
Wed 07:29:02 PM 41.8840 -87.7600 90° East 223 257 7,300 -1,309 Descending FlightAware ADS-B
Wed 07:29:37 PM 41.8840 -87.7100 90° East 211 243 6,400 -1,320 Descending FlightAware ADS-B
Wed 07:29:52 PM 41.8840 -87.6900 90° East 210 242 6,200 -933 Descending FlightAware ADS-B
Wed 07:30:22 PM 41.8840 -87.6530 90° East 210 242 5,700 -982 Descending FlightAware ADS-B
Wed 07:30:47 PM 41.8840 -87.6200 90° East 209 241 5,300 -982 Descending FlightAware ADS-B
Wed 07:31:17 PM 41.8840 -87.5810 90° East 208 239 4,800 -982 Descending FlightAware ADS-B
Wed 07:31:42 PM 41.8900 -87.5520 74° East 207 238 4,400 -750 Descending FlightAware ADS-B
Wed 07:31:57 PM 41.9030 -87.5420 30° Northeast 196 226 4,300 -200 Descending FlightAware ADS-B
Wed 07:32:42 PM 41.9340 -87.5570 340° North 164 189 4,200 -109 Descending FlightAware ADS-B
Wed 07:32:52 PM 41.9350 -87.5670 278° West 161 185 4,200  Level FlightAware ADS-B
Wed 07:33:07 PM 41.9360 -87.5830 275° West 167 192 4,200  Level FlightAware ADS-B
Wed 07:33:22 PM 41.9410 -87.5960 297° West 178 205 4,200  Level FlightAware ADS-B
Wed 07:33:47 PM 41.9510 -87.6210 298° West 178 205 4,200  Level FlightAware ADS-B
Wed 07:34:17 PM 41.9630 -87.6490 300° West 179 206 4,200 -133 Level FlightAware ADS-B
Wed 07:34:32 PM 41.9670 -87.6610 294° West 177 204 4,100 -800 Descending FlightAware ADS-B
Wed 07:34:47 PM 41.9690 -87.6810 278° West 178 205 3,800 -1,050 Descending FlightAware ADS-B
Wed 07:35:12 PM 41.9690 -87.7090 270° West 175 201 3,400 -982 Descending FlightAware ADS-B
Wed 07:35:42 PM 41.9690 -87.7420 270° West 175 201 2,900 -900 Descending FlightAware ADS-B
Wed 07:36:12 PM 41.9690 -87.7720 270° West 168 193 2,500 -840 Descending FlightAware ADS-B
Wed 07:36:32 PM 41.9690 -87.7920 270° West 155 178 2,200 -764 Descending FlightAware ADS-B
Wed 07:37:07 PM 41.9690 -87.8200 270° West 129 148 1,800 -720 Descending FlightAware ADS-B
Wed 07:37:47 PM 41.9690 -87.8550 270° West 129 148 1,300 -667 Descending FlightAware ADS-B
Wed 07:37:52 PM 41.9690 -87.8580 270° West 130 150 1,300 -600 Level FlightAware ADS-B
Wed 07:38:27 PM 41.9690 -87.8880 270° West 131 151 900 -400 Descending FlightAware ADS-B
Wed 07:38:52 PM 41.9690 -87.9060 270° West 131 151 900  Level FlightAware ADS-B

Login

Don't have an account? Register now (free) for customized features, flight alerts, and more!